KMHS/MHS METAR and TAF weather

Enter ICAO airport designator
Station Type Date Time Source
KMHS METAR 2019/04/24 21:56 UTC NOAA

KMHS 242156Z AUTO 30006KT 10SM CLR 24/06 A3006 RMK AO2 SLP169 T02440056


Station Type Date Time Source
KMHS Decoded METAR 2019/04/24 21:56 UTC NOAA

MOUNT SHASTA, CA, United States (KMHS) 41-19N 122-19W 1078M
Apr 24, 2019 - 05:56 PM EDT / 2019.04.24 2156 UTC
Wind: from the WNW (300 degrees) at 7 MPH (6 KT):0
Visibility: 10 mile(s):0
Sky conditions: clear
Temperature: 75.9 F (24.4 C)
Dew Point: 42.1 F (5.6 C)
Relative Humidity: 29%
Pressure (altimeter): 30.06 in. Hg (1017 hPa)
ob: KMHS 242156Z AUTO 30006KT 10SM CLR 24/06 A3006 RMK AO2 SLP169 T02440056
cycle: 22

Station Type Date Time Source
KMHS TAF UTC NOAA

Error!

Example: see airport list